Nearby METAR Reports

 

KLMO - Longmont/Vbrand, Colorado, USA
Distance from station: SE 22mi, 36km
Updated: Fri, 12-Apr-2024 8:15pm MDT
Clear
Clear
 Wind from calm
Wind: Calm
Temperature: 63°F , 17°C
Dew Point: 27°F , -3°C
Humidity: 25%
Barometer: 30.00 inHg , 1015.9 hPa
Clouds: Clear
Visibility: 10 miles , 16 km
2024/04/13 02:15 KLMO 130215Z AUTO 00000KT 10SM CLR 17/M03 A3000 RMK AO2 T01731034
KFNL - Ft Collins/Lovel, Colorado, USA
Distance from station: E 25mi, 40km
Updated: Fri, 12-Apr-2024 7:56pm MDT
Clear
Clear
 Wind from SSE
Wind: SSE 5 mph , 7 km/h
Temperature: 66°F , 19°C
Dew Point: 18°F , -8°C
Humidity: 15%
Barometer: 29.97 inHg , 1014.9 hPa
Clouds: Clear
Visibility: 10 miles , 16 km
2024/04/13 01:56 KFNL 130156Z AUTO 15004KT 10SM CLR 19/M08 A2997 RMK AO2 SLP118 T01941078
 
KBDU - Boulder Muni, Colorado, USA
Distance from station: SSE 28mi, 44km
Updated: Fri, 12-Apr-2024 8:15pm MDT
Clear
Clear
 Wind from calm
Wind: Calm
Temperature: 64°F , 18°C
Dew Point: 21°F , -6°C
Humidity: 19%
Barometer: 29.99 inHg , 1015.6 hPa
Clouds: Clear
Visibility: 10 miles , 16 km
2024/04/13 02:15 KBDU 130215Z AUTO 00000KT 10SM CLR 18/M06 A2999 RMK AO2
KGNB - Granby/Grand Co, Colorado, USA
Distance from station: SW 31mi, 50km
Updated: Fri, 12-Apr-2024 8:15pm MDT
Clear
Clear
 Wind from NNE
Wind: NNE 6 mph , 9 km/h
Temperature: 43°F , 6°C
Wind Chill: 39°F , 4°C
Dew Point: -20°F , -29°C
Humidity: 6%
Barometer: 30.16 inHg , 1021.3 hPa
Clouds: Clear
Visibility: 10 miles , 16 km
2024/04/13 02:15 KGNB 130215Z AUTO 02005KT 10SM CLR 06/M29 A3016 RMK AO2 T00611292
 
KEIK - Erie Muni, Colorado, USA
Distance from station: SE 34mi, 55km
Updated: Fri, 12-Apr-2024 8:15pm MDT
Clear
Clear
 Wind from calm
Wind: Calm
Temperature: 57°F , 14°C
Dew Point: 25°F , -4°C
Humidity: 29%
Barometer: 29.97 inHg , 1014.9 hPa
Clouds: Clear
Visibility: 10 miles , 16 km
2024/04/13 02:15 KEIK 130215Z AUTO 00000KT 10SM CLR 14/M04 A2997 RMK AO2 T01371037 $
KC99 - Dakota Hill, Colorado, USA
Distance from station: S 36mi, 58km
Updated: Fri, 12-Apr-2024 8:17pm MDT
Overcast
Overcast
 Wind from NNW
Wind: NNW 8 mph , 13 km/h
Temperature: 39°F , 4°C
Wind Chill: 33°F , 1°C
Dew Point: 12°F , -11°C
Humidity: 33%
Barometer: 30.31 inHg , 1026.4 hPa
Clouds: Overcast
Visibility: 10 miles , 16 km
Cloud details: Mostly cloudy 10000 ft
Overcast 11000 ft
2024/04/13 02:17 KC99 130217Z AUTO 34007KT 10SM BKN100 OVC110 04/M11 A3031 RMK AO2
 
KBJC - Broomfield/Jeffc, Colorado, USA
Distance from station: SSE 39mi, 63km
Updated: Fri, 12-Apr-2024 7:45pm MDT
Mostly cloudy
Mostly cloudy
 Wind from N
Wind: N 7 mph , 11 km/h
Temperature: 66°F , 19°C
Dew Point: 16°F , -9°C
Humidity: 14%
Barometer: 30.00 inHg , 1015.9 hPa
Clouds: Mostly cloudy
Visibility: 10 miles , 16 km
Cloud details: Partly cloudy 6000 ft
Mostly cloudy 10000 ft
2024/04/13 01:45 KBJC 130145Z 01006KT 10SM SCT060 BKN100 19/M09 A3000
K0CO - Berthoud Pass, Colorado, USA
Distance from station: SSW 43mi, 69km
Updated: Fri, 12-Apr-2024 8:15pm MDT
Overcast
Overcast
 Wind from SSE
Wind: SSE 14 mph , 22 km/h, Gust: 22 mph , 35 km/h
Temperature: 32°F , 0°C
Wind Chill: 22°F , -6°C
Dew Point: 9°F , -13°C
Humidity: 37%
Barometer: 30.38 inHg , 1028.8 hPa
Clouds: Overcast
Cloud details: Overcast 8000 ft
2024/04/13 02:15 K0CO 130215Z AUTO 16012G19KT OVC080 00/M13 A3038 RMK AO2 PWINO
 
KGXY - Greeley/Weld, Colorado, USA
Distance from station: E 46mi, 74km
Updated: Fri, 12-Apr-2024 7:56pm MDT
Clear
Clear
 Wind from ESE
Wind: ESE 6 mph , 9 km/h
Temperature: 64°F , 18°C
Dew Point: 18°F , -8°C
Humidity: 16%
Barometer: 29.96 inHg , 1014.6 hPa
Clouds: Clear
Visibility: 10 miles , 16 km
2024/04/13 01:56 KGXY 130156Z 12005KT 10SM CLR 18/M08 A2996 RMK AO2 SLP139 T01831078